sensor_id;sensor_type;location;lat;lon;timestamp;P1;durP1;ratioP1;P2;durP2;ratioP2
10896;SDS011;5501;51.176;6.470;2023-09-18T00:04:26;5.28;;;3.50;;
10896;SDS011;5501;51.176;6.470;2023-09-18T00:09:28;5.13;;;3.67;;
10896;SDS011;5501;51.176;6.470;2023-09-18T00:14:29;7.13;;;4.10;;
10896;SDS011;5501;51.176;6.470;2023-09-18T00:19:31;6.60;;;4.25;;
10896;SDS011;5501;51.176;6.470;2023-09-18T00:24:33;5.88;;;3.83;;
10896;SDS011;5501;51.176;6.470;2023-09-18T00:29:35;5.85;;;3.83;;
10896;SDS011;5501;51.176;6.470;2023-09-18T00:34:36;6.40;;;3.92;;
10896;SDS011;5501;51.176;6.470;2023-09-18T00:39:38;5.18;;;4.03;;
10896;SDS011;5501;51.176;6.470;2023-09-18T00:44:40;6.32;;;3.67;;
10896;SDS011;5501;51.176;6.470;2023-09-18T00:49:43;6.05;;;3.85;;
10896;SDS011;5501;51.176;6.470;2023-09-18T00:54:48;4.47;;;3.72;;
10896;SDS011;5501;51.176;6.470;2023-09-18T00:59:51;6.38;;;4.20;;
10896;SDS011;5501;51.176;6.470;2023-09-18T01:04:52;6.30;;;4.20;;
10896;SDS011;5501;51.176;6.470;2023-09-18T01:09:54;4.78;;;4.05;;
10896;SDS011;5501;51.176;6.470;2023-09-18T01:14:59;9.57;;;4.57;;
10896;SDS011;5501;51.176;6.470;2023-09-18T01:20:11;7.05;;;4.50;;
10896;SDS011;5501;51.176;6.470;2023-09-18T01:25:13;6.70;;;4.63;;
10896;SDS011;5501;51.176;6.470;2023-09-18T01:30:15;6.18;;;4.10;;
10896;SDS011;5501;51.176;6.470;2023-09-18T01:35:17;5.60;;;4.68;;
10896;SDS011;5501;51.176;6.470;2023-09-18T01:40:19;11.15;;;5.00;;
10896;SDS011;5501;51.176;6.470;2023-09-18T01:45:21;6.95;;;4.28;;
10896;SDS011;5501;51.176;6.470;2023-09-18T01:50:22;5.95;;;5.15;;
10896;SDS011;5501;51.176;6.470;2023-09-18T01:55:24;5.22;;;4.38;;
10896;SDS011;5501;51.176;6.470;2023-09-18T02:00:26;6.60;;;4.75;;
10896;SDS011;5501;51.176;6.470;2023-09-18T02:05:28;6.47;;;4.68;;
10896;SDS011;5501;51.176;6.470;2023-09-18T02:10:30;12.52;;;4.75;;
10896;SDS011;5501;51.176;6.470;2023-09-18T02:15:32;5.53;;;4.38;;
10896;SDS011;5501;51.176;6.470;2023-09-18T02:20:39;6.57;;;4.55;;
10896;SDS011;5501;51.176;6.470;2023-09-18T02:25:42;6.30;;;4.80;;
10896;SDS011;5501;51.176;6.470;2023-09-18T02:30:43;7.85;;;4.38;;
10896;SDS011;5501;51.176;6.470;2023-09-18T02:35:47;6.43;;;4.93;;
10896;SDS011;5501;51.176;6.470;2023-09-18T02:40:48;6.30;;;4.40;;
10896;SDS011;5501;51.176;6.470;2023-09-18T02:45:50;6.13;;;4.68;;
10896;SDS011;5501;51.176;6.470;2023-09-18T02:50:52;6.68;;;4.57;;
10896;SDS011;5501;51.176;6.470;2023-09-18T02:55:54;4.55;;;4.13;;
10896;SDS011;5501;51.176;6.470;2023-09-18T03:00:57;11.65;;;5.22;;
10896;SDS011;5501;51.176;6.470;2023-09-18T03:06:04;5.95;;;4.40;;
10896;SDS011;5501;51.176;6.470;2023-09-18T03:11:13;8.07;;;4.60;;
10896;SDS011;5501;51.176;6.470;2023-09-18T03:16:15;5.22;;;4.60;;
10896;SDS011;5501;51.176;6.470;2023-09-18T03:21:18;7.90;;;4.55;;
10896;SDS011;5501;51.176;6.470;2023-09-18T03:26:20;8.63;;;4.13;;
10896;SDS011;5501;51.176;6.470;2023-09-18T03:31:21;7.10;;;4.55;;
10896;SDS011;5501;51.176;6.470;2023-09-18T03:36:23;10.40;;;4.05;;
10896;SDS011;5501;51.176;6.470;2023-09-18T03:41:25;7.78;;;3.90;;
10896;SDS011;5501;51.176;6.470;2023-09-18T03:46:27;7.13;;;4.07;;
10896;SDS011;5501;51.176;6.470;2023-09-18T03:51:28;4.75;;;3.00;;
10896;SDS011;5501;51.176;6.470;2023-09-18T03:56:30;5.57;;;3.58;;
10896;SDS011;5501;51.176;6.470;2023-09-18T04:01:32;8.02;;;3.33;;
10896;SDS011;5501;51.176;6.470;2023-09-18T04:06:40;11.18;;;3.63;;
10896;SDS011;5501;51.176;6.470;2023-09-18T04:11:43;7.55;;;3.53;;
10896;SDS011;5501;51.176;6.470;2023-09-18T04:16:45;9.40;;;3.00;;
10896;SDS011;5501;51.176;6.470;2023-09-18T04:21:46;3.13;;;2.63;;
10896;SDS011;5501;51.176;6.470;2023-09-18T04:26:49;4.97;;;2.90;;
10896;SDS011;5501;51.176;6.470;2023-09-18T04:31:53;4.20;;;2.35;;
10896;SDS011;5501;51.176;6.470;2023-09-18T04:36:56;4.72;;;2.70;;
10896;SDS011;5501;51.176;6.470;2023-09-18T04:41:58;3.10;;;1.98;;
10896;SDS011;5501;51.176;6.470;2023-09-18T04:47:00;7.03;;;2.45;;
10896;SDS011;5501;51.176;6.470;2023-09-18T04:52:02;2.58;;;1.75;;
10896;SDS011;5501;51.176;6.470;2023-09-18T04:57:04;4.13;;;2.13;;
10896;SDS011;5501;51.176;6.470;2023-09-18T05:02:06;5.30;;;1.70;;
10896;SDS011;5501;51.176;6.470;2023-09-18T05:07:08;5.68;;;1.90;;
10896;SDS011;5501;51.176;6.470;2023-09-18T05:12:09;5.10;;;2.03;;
10896;SDS011;5501;51.176;6.470;2023-09-18T05:17:15;3.80;;;2.17;;
10896;SDS011;5501;51.176;6.470;2023-09-18T05:22:17;3.72;;;1.80;;
10896;SDS011;5501;51.176;6.470;2023-09-18T05:27:19;3.60;;;1.90;;
10896;SDS011;5501;51.176;6.470;2023-09-18T05:32:21;1.92;;;1.40;;
10896;SDS011;5501;51.176;6.470;2023-09-18T05:37:22;3.92;;;1.73;;
10896;SDS011;5501;51.176;6.470;2023-09-18T05:42:24;2.20;;;1.55;;
10896;SDS011;5501;51.176;6.470;2023-09-18T05:47:25;4.32;;;1.67;;
10896;SDS011;5501;51.176;6.470;2023-09-18T05:52:27;2.58;;;1.30;;
10896;SDS011;5501;51.176;6.470;2023-09-18T05:57:29;5.13;;;1.35;;
10896;SDS011;5501;51.176;6.470;2023-09-18T06:02:30;2.80;;;1.63;;
10896;SDS011;5501;51.176;6.470;2023-09-18T06:07:32;2.75;;;1.13;;
10896;SDS011;5501;51.176;6.470;2023-09-18T06:12:34;1.88;;;1.20;;
10896;SDS011;5501;51.176;6.470;2023-09-18T06:17:38;4.10;;;1.50;;
10896;SDS011;5501;51.176;6.470;2023-09-18T06:22:41;4.88;;;1.63;;
10896;SDS011;5501;51.176;6.470;2023-09-18T06:27:43;3.58;;;1.30;;
10896;SDS011;5501;51.176;6.470;2023-09-18T06:32:44;4.72;;;1.50;;
10896;SDS011;5501;51.176;6.470;2023-09-18T06:37:46;1.52;;;1.02;;
10896;SDS011;5501;51.176;6.470;2023-09-18T06:42:48;4.85;;;1.25;;
10896;SDS011;5501;51.176;6.470;2023-09-18T06:47:50;2.28;;;1.20;;
10896;SDS011;5501;51.176;6.470;2023-09-18T06:52:52;1.85;;;1.17;;
10896;SDS011;5501;51.176;6.470;2023-09-18T06:57:53;1.50;;;1.02;;
10896;SDS011;5501;51.176;6.470;2023-09-18T07:02:55;3.45;;;1.23;;
10896;SDS011;5501;51.176;6.470;2023-09-18T07:07:57;2.67;;;1.25;;
10896;SDS011;5501;51.176;6.470;2023-09-18T07:12:59;3.40;;;1.48;;
10896;SDS011;5501;51.176;6.470;2023-09-18T07:18:00;1.75;;;1.10;;
10896;SDS011;5501;51.176;6.470;2023-09-18T07:23:02;1.63;;;1.10;;
10896;SDS011;5501;51.176;6.470;2023-09-18T07:28:05;3.10;;;1.00;;
10896;SDS011;5501;51.176;6.470;2023-09-18T07:33:08;5.03;;;1.30;;
10896;SDS011;5501;51.176;6.470;2023-09-18T07:38:09;2.35;;;1.20;;
10896;SDS011;5501;51.176;6.470;2023-09-18T07:43:11;2.22;;;0.90;;
10896;SDS011;5501;51.176;6.470;2023-09-18T07:48:13;3.10;;;0.90;;
10896;SDS011;5501;51.176;6.470;2023-09-18T07:53:14;1.30;;;1.00;;
10896;SDS011;5501;51.176;6.470;2023-09-18T07:58:16;2.72;;;1.20;;
10896;SDS011;5501;51.176;6.470;2023-09-18T08:03:18;2.10;;;1.05;;
10896;SDS011;5501;51.176;6.470;2023-09-18T08:08:20;1.45;;;1.02;;
10896;SDS011;5501;51.176;6.470;2023-09-18T08:13:23;3.45;;;1.00;;
10896;SDS011;5501;51.176;6.470;2023-09-18T08:18:25;1.25;;;0.80;;
10896;SDS011;5501;51.176;6.470;2023-09-18T08:23:28;2.65;;;1.00;;
10896;SDS011;5501;51.176;6.470;2023-09-18T08:28:30;3.88;;;0.85;;
10896;SDS011;5501;51.176;6.470;2023-09-18T08:33:31;2.05;;;1.10;;
10896;SDS011;5501;51.176;6.470;2023-09-18T08:38:33;1.60;;;1.45;;
10896;SDS011;5501;51.176;6.470;2023-09-18T08:43:34;2.10;;;1.10;;
10896;SDS011;5501;51.176;6.470;2023-09-18T08:48:40;2.95;;;1.10;;
10896;SDS011;5501;51.176;6.470;2023-09-18T08:53:43;2.38;;;1.00;;
10896;SDS011;5501;51.176;6.470;2023-09-18T08:58:44;0.93;;;0.88;;
10896;SDS011;5501;51.176;6.470;2023-09-18T09:03:46;3.53;;;0.90;;
10896;SDS011;5501;51.176;6.470;2023-09-18T09:08:49;1.38;;;1.08;;
10896;SDS011;5501;51.176;6.470;2023-09-18T09:14:11;2.33;;;1.10;;
10896;SDS011;5501;51.176;6.470;2023-09-18T09:19:19;0.70;;;0.70;;
10896;SDS011;5501;51.176;6.470;2023-09-18T09:24:39;6.00;;;1.10;;
10896;SDS011;5501;51.176;6.470;2023-09-18T09:29:57;1.42;;;0.85;;
10896;SDS011;5501;51.176;6.470;2023-09-18T09:35:01;1.63;;;0.98;;
10896;SDS011;5501;51.176;6.470;2023-09-18T09:40:08;2.95;;;1.10;;
10896;SDS011;5501;51.176;6.470;2023-09-18T09:45:11;1.83;;;0.95;;
10896;SDS011;5501;51.176;6.470;2023-09-18T09:50:14;0.90;;;0.88;;
10896;SDS011;5501;51.176;6.470;2023-09-18T09:55:21;2.50;;;0.82;;
10896;SDS011;5501;51.176;6.470;2023-09-18T10:05:45;2.45;;;1.30;;
10896;SDS011;5501;51.176;6.470;2023-09-18T10:10:49;1.13;;;1.02;;
10896;SDS011;5501;51.176;6.470;2023-09-18T10:15:53;3.45;;;0.95;;
10896;SDS011;5501;51.176;6.470;2023-09-18T10:20:58;3.97;;;1.50;;
10896;SDS011;5501;51.176;6.470;2023-09-18T10:26:07;1.92;;;1.08;;
10896;SDS011;5501;51.176;6.470;2023-09-18T10:31:13;1.45;;;1.10;;
10896;SDS011;5501;51.176;6.470;2023-09-18T10:36:14;4.85;;;1.10;;
10896;SDS011;5501;51.176;6.470;2023-09-18T10:41:19;1.48;;;1.10;;
10896;SDS011;5501;51.176;6.470;2023-09-18T10:46:23;2.38;;;1.10;;
10896;SDS011;5501;51.176;6.470;2023-09-18T10:51:26;1.77;;;1.30;;
10896;SDS011;5501;51.176;6.470;2023-09-18T10:56:30;3.13;;;1.30;;
10896;SDS011;5501;51.176;6.470;2023-09-18T11:01:32;2.35;;;1.20;;
10896;SDS011;5501;51.176;6.470;2023-09-18T11:17:03;1.60;;;1.10;;
10896;SDS011;5501;51.176;6.470;2023-09-18T11:22:08;2.30;;;1.30;;
10896;SDS011;5501;51.176;6.470;2023-09-18T11:27:11;0.88;;;0.82;;
10896;SDS011;5501;51.176;6.470;2023-09-18T11:32:12;5.18;;;1.05;;
10896;SDS011;5501;51.176;6.470;2023-09-18T11:37:20;1.20;;;1.00;;
10896;SDS011;5501;51.176;6.470;2023-09-18T11:42:22;1.23;;;1.00;;
10896;SDS011;5501;51.176;6.470;2023-09-18T11:47:24;1.92;;;1.13;;
10896;SDS011;5501;51.176;6.470;2023-09-18T11:52:27;3.35;;;1.20;;
10896;SDS011;5501;51.176;6.470;2023-09-18T11:57:35;1.90;;;1.15;;
10896;SDS011;5501;51.176;6.470;2023-09-18T12:02:37;3.33;;;1.35;;
10896;SDS011;5501;51.176;6.470;2023-09-18T12:07:43;2.28;;;1.30;;
10896;SDS011;5501;51.176;6.470;2023-09-18T12:12:47;1.20;;;1.10;;
10896;SDS011;5501;51.176;6.470;2023-09-18T12:17:50;3.80;;;1.20;;
10896;SDS011;5501;51.176;6.470;2023-09-18T12:22:56;1.48;;;1.10;;
10896;SDS011;5501;51.176;6.470;2023-09-18T12:27:58;1.80;;;1.05;;
10896;SDS011;5501;51.176;6.470;2023-09-18T12:33:01;2.38;;;0.90;;
10896;SDS011;5501;51.176;6.470;2023-09-18T12:38:13;2.95;;;1.27;;
10896;SDS011;5501;51.176;6.470;2023-09-18T12:43:15;1.38;;;1.02;;
10896;SDS011;5501;51.176;6.470;2023-09-18T12:48:17;1.67;;;1.40;;
10896;SDS011;5501;51.176;6.470;2023-09-18T12:53:21;2.03;;;1.15;;
10896;SDS011;5501;51.176;6.470;2023-09-18T12:58:24;1.52;;;1.10;;
10896;SDS011;5501;51.176;6.470;2023-09-18T13:03:25;3.55;;;1.25;;
10896;SDS011;5501;51.176;6.470;2023-09-18T13:08:27;1.95;;;1.45;;
10896;SDS011;5501;51.176;6.470;2023-09-18T13:13:29;1.48;;;1.08;;
10896;SDS011;5501;51.176;6.470;2023-09-18T13:18:31;2.60;;;1.00;;
10896;SDS011;5501;51.176;6.470;2023-09-18T13:23:34;0.90;;;0.90;;
10896;SDS011;5501;51.176;6.470;2023-09-18T13:28:36;1.20;;;1.10;;
10896;SDS011;5501;51.176;6.470;2023-09-18T13:33:38;1.30;;;1.20;;
10896;SDS011;5501;51.176;6.470;2023-09-18T13:38:41;3.72;;;1.40;;
10896;SDS011;5501;51.176;6.470;2023-09-18T13:43:45;1.58;;;1.40;;
10896;SDS011;5501;51.176;6.470;2023-09-18T13:48:48;1.27;;;1.17;;
10896;SDS011;5501;51.176;6.470;2023-09-18T13:53:50;1.00;;;0.90;;
10896;SDS011;5501;51.176;6.470;2023-09-18T13:58:51;3.63;;;1.63;;
10896;SDS011;5501;51.176;6.470;2023-09-18T14:03:53;1.58;;;1.02;;
10896;SDS011;5501;51.176;6.470;2023-09-18T14:08:55;1.60;;;1.02;;
10896;SDS011;5501;51.176;6.470;2023-09-18T14:13:57;2.53;;;1.10;;
10896;SDS011;5501;51.176;6.470;2023-09-18T14:18:59;1.38;;;1.05;;
10896;SDS011;5501;51.176;6.470;2023-09-18T14:24:01;1.25;;;0.93;;
10896;SDS011;5501;51.176;6.470;2023-09-18T14:29:02;0.98;;;0.90;;
10896;SDS011;5501;51.176;6.470;2023-09-18T14:34:04;2.45;;;1.17;;
10896;SDS011;5501;51.176;6.470;2023-09-18T14:39:06;2.53;;;1.27;;
10896;SDS011;5501;51.176;6.470;2023-09-18T14:44:11;1.77;;;1.10;;
10896;SDS011;5501;51.176;6.470;2023-09-18T14:49:12;2.08;;;1.08;;
10896;SDS011;5501;51.176;6.470;2023-09-18T14:54:14;2.50;;;1.23;;
10896;SDS011;5501;51.176;6.470;2023-09-18T14:59:16;4.63;;;1.10;;
10896;SDS011;5501;51.176;6.470;2023-09-18T15:04:32;1.10;;;1.02;;
10896;SDS011;5501;51.176;6.470;2023-09-18T15:09:34;1.38;;;1.08;;
10896;SDS011;5501;51.176;6.470;2023-09-18T15:14:36;0.95;;;0.90;;
10896;SDS011;5501;51.176;6.470;2023-09-18T15:19:38;1.45;;;1.10;;
10896;SDS011;5501;51.176;6.470;2023-09-18T15:24:39;1.58;;;1.10;;
10896;SDS011;5501;51.176;6.470;2023-09-18T15:29:41;1.58;;;1.10;;
10896;SDS011;5501;51.176;6.470;2023-09-18T15:34:43;1.65;;;1.08;;
10896;SDS011;5501;51.176;6.470;2023-09-18T15:39:45;2.13;;;1.15;;
10896;SDS011;5501;51.176;6.470;2023-09-18T15:44:47;1.55;;;1.20;;
10896;SDS011;5501;51.176;6.470;2023-09-18T15:49:48;2.97;;;1.42;;
10896;SDS011;5501;51.176;6.470;2023-09-18T15:54:50;1.77;;;1.00;;
10896;SDS011;5501;51.176;6.470;2023-09-18T15:59:52;2.30;;;1.25;;
10896;SDS011;5501;51.176;6.470;2023-09-18T16:04:54;2.10;;;1.17;;
10896;SDS011;5501;51.176;6.470;2023-09-18T16:09:55;2.25;;;1.20;;
10896;SDS011;5501;51.176;6.470;2023-09-18T16:14:58;0.95;;;0.90;;
10896;SDS011;5501;51.176;6.470;2023-09-18T16:19:59;1.80;;;1.20;;
10896;SDS011;5501;51.176;6.470;2023-09-18T16:25:02;3.17;;;1.30;;
10896;SDS011;5501;51.176;6.470;2023-09-18T16:30:04;1.58;;;1.20;;
10896;SDS011;5501;51.176;6.470;2023-09-18T16:35:07;5.93;;;1.42;;
10896;SDS011;5501;51.176;6.470;2023-09-18T16:40:09;1.95;;;0.90;;
10896;SDS011;5501;51.176;6.470;2023-09-18T16:45:12;1.35;;;1.17;;
10896;SDS011;5501;51.176;6.470;2023-09-18T16:50:14;1.17;;;0.90;;
10896;SDS011;5501;51.176;6.470;2023-09-18T16:55:16;2.63;;;0.90;;
10896;SDS011;5501;51.176;6.470;2023-09-18T17:00:17;1.10;;;1.00;;
10896;SDS011;5501;51.176;6.470;2023-09-18T17:05:19;2.30;;;1.30;;
10896;SDS011;5501;51.176;6.470;2023-09-18T17:10:21;1.30;;;1.10;;
10896;SDS011;5501;51.176;6.470;2023-09-18T17:15:24;1.42;;;1.10;;
10896;SDS011;5501;51.176;6.470;2023-09-18T17:20:29;4.60;;;1.20;;
10896;SDS011;5501;51.176;6.470;2023-09-18T17:25:31;1.42;;;1.10;;
10896;SDS011;5501;51.176;6.470;2023-09-18T17:30:34;2.88;;;1.27;;
10896;SDS011;5501;51.176;6.470;2023-09-18T17:35:35;2.95;;;1.00;;
10896;SDS011;5501;51.176;6.470;2023-09-18T17:40:40;3.42;;;1.17;;
10896;SDS011;5501;51.176;6.470;2023-09-18T17:45:42;3.35;;;1.52;;
10896;SDS011;5501;51.176;6.470;2023-09-18T17:50:44;2.47;;;1.48;;
10896;SDS011;5501;51.176;6.470;2023-09-18T17:55:48;3.42;;;1.30;;
10896;SDS011;5501;51.176;6.470;2023-09-18T18:00:52;2.33;;;1.25;;
10896;SDS011;5501;51.176;6.470;2023-09-18T18:05:56;3.20;;;1.58;;
10896;SDS011;5501;51.176;6.470;2023-09-18T18:10:58;1.45;;;1.17;;
10896;SDS011;5501;51.176;6.470;2023-09-18T18:16:00;3.60;;;1.40;;
10896;SDS011;5501;51.176;6.470;2023-09-18T18:21:01;1.70;;;1.30;;
10896;SDS011;5501;51.176;6.470;2023-09-18T18:26:08;2.47;;;1.40;;
10896;SDS011;5501;51.176;6.470;2023-09-18T18:31:11;1.48;;;1.13;;
10896;SDS011;5501;51.176;6.470;2023-09-18T18:36:16;2.47;;;1.27;;
10896;SDS011;5501;51.176;6.470;2023-09-18T18:41:18;2.03;;;1.30;;
10896;SDS011;5501;51.176;6.470;2023-09-18T18:46:20;1.27;;;1.17;;
10896;SDS011;5501;51.176;6.470;2023-09-18T18:51:21;2.38;;;1.45;;
10896;SDS011;5501;51.176;6.470;2023-09-18T18:56:24;2.35;;;1.40;;
10896;SDS011;5501;51.176;6.470;2023-09-18T19:01:25;4.93;;;1.67;;
10896;SDS011;5501;51.176;6.470;2023-09-18T19:06:28;4.45;;;1.48;;
10896;SDS011;5501;51.176;6.470;2023-09-18T19:11:30;3.10;;;1.85;;
10896;SDS011;5501;51.176;6.470;2023-09-18T19:16:32;2.00;;;1.73;;
10896;SDS011;5501;51.176;6.470;2023-09-18T19:21:33;1.30;;;1.20;;
10896;SDS011;5501;51.176;6.470;2023-09-18T19:26:35;1.13;;;1.02;;
10896;SDS011;5501;51.176;6.470;2023-09-18T19:31:37;4.78;;;1.70;;
10896;SDS011;5501;51.176;6.470;2023-09-18T19:36:38;1.52;;;1.25;;
10896;SDS011;5501;51.176;6.470;2023-09-18T19:41:40;1.55;;;1.30;;
10896;SDS011;5501;51.176;6.470;2023-09-18T19:46:41;1.83;;;1.35;;
10896;SDS011;5501;51.176;6.470;2023-09-18T19:51:43;1.30;;;1.20;;
10896;SDS011;5501;51.176;6.470;2023-09-18T19:56:44;5.57;;;1.20;;
10896;SDS011;5501;51.176;6.470;2023-09-18T20:01:46;2.70;;;1.05;;
10896;SDS011;5501;51.176;6.470;2023-09-18T20:06:47;2.22;;;1.30;;
10896;SDS011;5501;51.176;6.470;2023-09-18T20:11:49;3.55;;;1.63;;
10896;SDS011;5501;51.176;6.470;2023-09-18T20:16:52;5.05;;;1.83;;
10896;SDS011;5501;51.176;6.470;2023-09-18T20:21:53;1.30;;;1.20;;
10896;SDS011;5501;51.176;6.470;2023-09-18T20:26:55;2.30;;;1.35;;
10896;SDS011;5501;51.176;6.470;2023-09-18T20:31:56;1.92;;;1.30;;
10896;SDS011;5501;51.176;6.470;2023-09-18T20:36:59;1.83;;;1.15;;
10896;SDS011;5501;51.176;6.470;2023-09-18T20:42:00;4.07;;;1.70;;
10896;SDS011;5501;51.176;6.470;2023-09-18T20:47:02;3.00;;;1.02;;
10896;SDS011;5501;51.176;6.470;2023-09-18T20:52:04;3.60;;;1.55;;
10896;SDS011;5501;51.176;6.470;2023-09-18T20:57:06;2.30;;;1.50;;
10896;SDS011;5501;51.176;6.470;2023-09-18T21:02:08;2.17;;;1.40;;
10896;SDS011;5501;51.176;6.470;2023-09-18T21:07:11;7.90;;;1.92;;
10896;SDS011;5501;51.176;6.470;2023-09-18T21:12:13;1.48;;;1.20;;
10896;SDS011;5501;51.176;6.470;2023-09-18T21:17:16;1.63;;;1.20;;
10896;SDS011;5501;51.176;6.470;2023-09-18T21:22:17;1.17;;;1.08;;
10896;SDS011;5501;51.176;6.470;2023-09-18T21:27:19;2.15;;;1.52;;
10896;SDS011;5501;51.176;6.470;2023-09-18T21:32:20;2.13;;;1.17;;
10896;SDS011;5501;51.176;6.470;2023-09-18T21:37:22;1.55;;;1.27;;
10896;SDS011;5501;51.176;6.470;2023-09-18T21:42:23;2.80;;;1.30;;
10896;SDS011;5501;51.176;6.470;2023-09-18T21:47:25;4.13;;;1.80;;
10896;SDS011;5501;51.176;6.470;2023-09-18T21:52:27;4.05;;;1.60;;
10896;SDS011;5501;51.176;6.470;2023-09-18T21:57:29;2.22;;;1.17;;
10896;SDS011;5501;51.176;6.470;2023-09-18T22:02:30;1.98;;;1.40;;
10896;SDS011;5501;51.176;6.470;2023-09-18T22:07:32;1.50;;;1.33;;
10896;SDS011;5501;51.176;6.470;2023-09-18T22:12:34;3.97;;;1.50;;
10896;SDS011;5501;51.176;6.470;2023-09-18T22:17:36;3.38;;;1.35;;
10896;SDS011;5501;51.176;6.470;2023-09-18T22:22:37;6.18;;;1.52;;
10896;SDS011;5501;51.176;6.470;2023-09-18T22:27:40;5.90;;;1.52;;
10896;SDS011;5501;51.176;6.470;2023-09-18T22:32:42;3.83;;;1.45;;
10896;SDS011;5501;51.176;6.470;2023-09-18T22:37:44;4.13;;;1.08;;
